Time;durP1;ratioP1;P1;durP2;ratioP2;P2;SDS_P1;SDS_P2;PMS_P1;PMS_P2;Temp;Humidity;BMP_temperature;BMP_pressure;BME280_temperature;BME280_humidity;BME280_pressure;Samples;Min_cycle;Max_cycle;Signal;HPM_P1;HPM_P2
2023/03/20 00:01:38;;;;;;;19.00;16.40;;;;;;;;;;5075858;28;20467;-71
2023/03/20 00:04:05;;;;;;;24.30;16.90;;;;;;;;;;5075445;28;20487;-71
2023/03/20 00:06:32;;;;;;;21.70;15.23;;;;;;;;;;5075149;28;20459;-71
2023/03/20 00:09:02;;;;;;;17.53;15.03;;;;;;;;;;5075725;28;20444;-71
2023/03/20 00:11:31;;;;;;;17.93;14.10;;;;;;;;;;5075402;28;20475;-71
2023/03/20 00:14:00;;;;;;;19.10;15.13;;;;;;;;;;5075472;28;20547;-71
2023/03/20 00:16:30;;;;;;;22.50;15.43;;;;;;;;;;5074861;28;20451;-71
2023/03/20 00:18:57;;;;;;;22.57;15.10;;;;;;;;;;5075539;28;20893;-71
2023/03/20 00:21:25;;;;;;;17.80;14.40;;;;;;;;;;5075237;28;20482;-71
2023/03/20 00:23:52;;;;;;;20.53;14.43;;;;;;;;;;5075246;28;20992;-71
2023/03/20 00:26:22;;;;;;;21.17;15.13;;;;;;;;;;5075160;28;20451;-71
2023/03/20 00:28:49;;;;;;;20.00;13.67;;;;;;;;;;5075311;28;20456;-71
2023/03/20 00:31:20;;;;;;;17.73;13.97;;;;;;;;;;5075215;28;21008;-71
2023/03/20 00:33:48;;;;;;;18.07;15.23;;;;;;;;;;5075118;28;20462;-71
2023/03/20 00:36:15;;;;;;;18.17;13.30;;;;;;;;;;5075016;28;20983;-71
2023/03/20 00:38:42;;;;;;;18.27;14.10;;;;;;;;;;5075104;28;20945;-71
2023/03/20 00:41:15;;;;;;;16.37;13.40;;;;;;;;;;5074918;28;20478;-71
2023/03/20 00:43:43;;;;;;;14.90;11.87;;;;;;;;;;5074840;28;20451;-71
2023/03/20 00:46:12;;;;;;;15.27;12.10;;;;;;;;;;5074852;28;20822;-71
2023/03/20 00:48:40;;;;;;;18.00;13.57;;;;;;;;;;5074929;28;20448;-71
2023/03/20 00:51:08;;;;;;;13.50;11.20;;;;;;;;;;5074663;28;20471;-71
2023/03/20 00:53:35;;;;;;;13.13;10.93;;;;;;;;;;5074745;28;20448;-71
2023/03/20 00:56:02;;;;;;;12.53;11.23;;;;;;;;;;5074748;28;20456;-71
2023/03/20 00:58:29;;;;;;;12.20;10.30;;;;;;;;;;5074668;28;20513;-71
2023/03/20 01:00:58;;;;;;;16.03;10.23;;;;;;;;;;5074615;28;20463;-71
2023/03/20 01:03:28;;;;;;;12.57;11.27;;;;;;;;;;5074603;28;20952;-71
2023/03/20 01:05:56;;;;;;;14.70;11.00;;;;;;;;;;5073965;28;20980;-71
2023/03/20 01:08:24;;;;;;;11.67;10.47;;;;;;;;;;5074461;28;20560;-71
2023/03/20 01:10:53;;;;;;;13.37;9.97;;;;;;;;;;5074329;28;20489;-71
2023/03/20 01:13:22;;;;;;;17.27;10.90;;;;;;;;;;5074336;28;20456;-71
2023/03/20 01:15:50;;;;;;;13.30;10.67;;;;;;;;;;5074230;28;20803;-71
2023/03/20 01:18:19;;;;;;;12.40;10.73;;;;;;;;;;5074275;28;20517;-71
2023/03/20 01:20:46;;;;;;;13.80;11.53;;;;;;;;;;5074153;28;20476;-71
2023/03/20 01:23:14;;;;;;;14.63;11.07;;;;;;;;;;5074098;28;20452;-71
2023/03/20 01:25:41;;;;;;;13.47;11.40;;;;;;;;;;5073939;28;20860;-71
2023/03/20 01:28:14;;;;;;;18.20;13.17;;;;;;;;;;5074113;28;20452;-71
2023/03/20 01:30:41;;;;;;;23.13;13.77;;;;;;;;;;5073833;28;20490;-71
2023/03/20 01:33:12;;;;;;;19.10;12.63;;;;;;;;;;5074086;28;20945;-71
2023/03/20 01:35:41;;;;;;;18.70;12.20;;;;;;;;;;5073864;28;20448;-71
2023/03/20 01:38:11;;;;;;;15.73;12.10;;;;;;;;;;5073957;28;20448;-71
2023/03/20 01:40:44;;;;;;;14.40;11.60;;;;;;;;;;5073865;28;20467;-71
2023/03/20 01:43:14;;;;;;;15.43;12.07;;;;;;;;;;5073735;28;20872;-71
2023/03/20 01:45:46;;;;;;;17.43;10.67;;;;;;;;;;5073592;28;20529;-71
2023/03/20 01:48:15;;;;;;;13.50;10.27;;;;;;;;;;5073643;28;20452;-71
2023/03/20 01:50:44;;;;;;;13.90;10.30;;;;;;;;;;5073647;28;20480;-71
2023/03/20 01:53:12;;;;;;;13.43;10.73;;;;;;;;;;5073580;28;20456;-71
2023/03/20 01:55:41;;;;;;;11.07;9.67;;;;;;;;;;5073286;28;20444;-71
2023/03/20 01:58:10;;;;;;;11.00;8.67;;;;;;;;;;5073481;28;20456;-71
2023/03/20 02:00:37;;;;;;;12.50;10.47;;;;;;;;;;5073463;28;20490;-71
2023/03/20 02:03:06;;;;;;;11.07;9.67;;;;;;;;;;5073416;28;20466;-72
2023/03/20 02:05:34;;;;;;;12.50;10.20;;;;;;;;;;5073037;28;20519;-71
2023/03/20 02:08:08;;;;;;;22.57;13.17;;;;;;;;;;5073406;28;20872;-72
2023/03/20 02:10:35;;;;;;;15.37;13.73;;;;;;;;;;5073319;28;20475;-73
2023/03/20 02:13:03;;;;;;;16.17;14.57;;;;;;;;;;5073422;28;20451;-73
2023/03/20 02:15:31;;;;;;;17.20;14.00;;;;;;;;;;5073092;28;20444;-72
2023/03/20 02:17:58;;;;;;;19.70;14.97;;;;;;;;;;5073355;28;20959;-72
2023/03/20 02:20:34;;;;;;;24.83;16.77;;;;;;;;;;5073325;28;20471;-72
2023/03/20 02:23:22;;;;;;;29.77;17.40;;;;;;;;;;5073295;28;20940;-72
2023/03/20 02:26:04;;;;;;;22.17;18.30;;;;;;;;;;5073073;28;20511;-72
2023/03/20 02:28:48;;;;;;;21.67;17.63;;;;;;;;;;5071074;28;20459;-73
2023/03/20 02:31:29;;;;;;;21.23;16.90;;;;;;;;;;5072799;28;20479;-73
2023/03/20 02:34:04;;;;;;;35.40;17.93;;;;;;;;;;5073052;28;20459;-73
2023/03/20 02:36:49;;;;;;;23.03;16.93;;;;;;;;;;5073305;28;20439;-73
2023/03/20 02:39:32;;;;;;;20.33;16.77;;;;;;;;;;5072581;28;20509;-73
2023/03/20 02:42:02;;;;;;;22.63;18.10;;;;;;;;;;5073099;28;20467;-74
2023/03/20 02:44:34;;;;;;;25.70;20.10;;;;;;;;;;5072740;28;20495;-73
2023/03/20 02:47:03;;;;;;;29.27;20.47;;;;;;;;;;5073017;28;20455;-74
2023/03/20 02:49:37;;;;;;;21.90;18.30;;;;;;;;;;5073030;28;20447;-73
2023/03/20 02:52:06;;;;;;;23.63;18.60;;;;;;;;;;5072812;28;20478;-74
2023/03/20 02:54:39;;;;;;;19.30;15.23;;;;;;;;;;5072604;28;20447;-74
2023/03/20 02:57:09;;;;;;;22.10;16.27;;;;;;;;;;5072849;28;20450;-73
2023/03/20 02:59:41;;;;;;;18.23;15.53;;;;;;;;;;5072921;28;20444;-73
2023/03/20 03:02:09;;;;;;;22.57;15.17;;;;;;;;;;5072701;28;20830;-74
2023/03/20 03:04:38;;;;;;;17.60;14.63;;;;;;;;;;5072562;28;20992;-73
2023/03/20 03:07:07;;;;;;;16.17;13.00;;;;;;;;;;5072115;28;20447;-73
2023/03/20 03:09:37;;;;;;;23.60;13.33;;;;;;;;;;5072877;28;20444;-73
2023/03/20 03:12:07;;;;;;;15.20;12.03;;;;;;;;;;5072677;28;20471;-74
2023/03/20 03:14:37;;;;;;;15.13;11.50;;;;;;;;;;5072689;28;20451;-73
2023/03/20 03:17:06;;;;;;;13.57;10.73;;;;;;;;;;5072867;28;20451;-74
2023/03/20 03:19:35;;;;;;;17.10;12.93;;;;;;;;;;5072681;28;20448;-73
2023/03/20 03:22:02;;;;;;;11.60;10.00;;;;;;;;;;5072487;28;20472;-73
2023/03/20 03:24:30;;;;;;;13.97;11.03;;;;;;;;;;5072527;28;20447;-73
2023/03/20 03:27:00;;;;;;;11.63;10.27;;;;;;;;;;5072606;28;21051;-73
2023/03/20 03:29:30;;;;;;;15.90;12.10;;;;;;;;;;5072546;28;20448;-73
2023/03/20 03:31:58;;;;;;;14.67;11.83;;;;;;;;;;5072440;28;20488;-73
2023/03/20 03:34:25;;;;;;;14.40;10.73;;;;;;;;;;5072347;28;20458;-73
2023/03/20 03:36:57;;;;;;;16.13;12.20;;;;;;;;;;5072562;28;20455;-73
2023/03/20 03:39:28;;;;;;;12.50;11.13;;;;;;;;;;5072526;28;20540;-73
2023/03/20 03:42:01;;;;;;;14.43;11.83;;;;;;;;;;5072380;28;20478;-74
2023/03/20 03:44:32;;;;;;;13.07;10.47;;;;;;;;;;5072109;28;20811;-74
2023/03/20 03:47:01;;;;;;;14.90;11.83;;;;;;;;;;5072459;28;20456;-73
2023/03/20 03:49:29;;;;;;;14.20;12.07;;;;;;;;;;5072440;28;20466;-73
2023/03/20 03:51:59;;;;;;;15.43;12.10;;;;;;;;;;5073527;28;20475;-73
2023/03/20 03:54:27;;;;;;;16.17;12.23;;;;;;;;;;5075647;28;20474;-73
2023/03/20 03:56:55;;;;;;;15.10;11.80;;;;;;;;;;5075984;28;20933;-73
2023/03/20 03:59:24;;;;;;;14.90;11.70;;;;;;;;;;5075950;28;20474;-73
2023/03/20 04:01:55;;;;;;;16.20;11.40;;;;;;;;;;5075796;28;20464;-73
2023/03/20 04:04:22;;;;;;;16.20;12.00;;;;;;;;;;5075732;28;20542;-73
2023/03/20 04:06:49;;;;;;;13.40;11.40;;;;;;;;;;5075352;28;20490;-73
2023/03/20 04:09:17;;;;;;;12.70;9.67;;;;;;;;;;5075702;28;20945;-73
2023/03/20 04:11:44;;;;;;;14.80;9.60;;;;;;;;;;5075653;28;20478;-73
2023/03/20 04:14:11;;;;;;;11.00;9.90;;;;;;;;;;5075415;28;20454;-73
2023/03/20 04:16:38;;;;;;;11.20;8.93;;;;;;;;;;5075658;28;20451;-73
2023/03/20 04:19:07;;;;;;;10.07;8.80;;;;;;;;;;5075580;28;20463;-73
2023/03/20 04:21:34;;;;;;;16.70;8.53;;;;;;;;;;5075404;28;20483;-73
2023/03/20 04:24:01;;;;;;;10.13;7.70;;;;;;;;;;5075347;28;20451;-73
2023/03/20 04:26:28;;;;;;;10.13;7.83;;;;;;;;;;5075311;28;20487;-73
2023/03/20 04:28:55;;;;;;;9.67;7.33;;;;;;;;;;5075346;28;20459;-73
2023/03/20 04:31:23;;;;;;;10.80;7.80;;;;;;;;;;5075007;28;20862;-73
2023/03/20 04:33:50;;;;;;;10.83;7.90;;;;;;;;;;5075025;28;20495;-74
2023/03/20 04:36:18;;;;;;;11.60;7.70;;;;;;;;;;5075064;28;20918;-74
2023/03/20 04:38:45;;;;;;;10.80;7.03;;;;;;;;;;5075264;28;20456;-74
2023/03/20 04:41:12;;;;;;;10.27;9.17;;;;;;;;;;5075013;28;20475;-74
2023/03/20 04:43:40;;;;;;;10.80;7.87;;;;;;;;;;5074993;28;20948;-73
2023/03/20 04:46:07;;;;;;;9.43;7.20;;;;;;;;;;5074870;28;20523;-73
2023/03/20 04:48:34;;;;;;;11.73;8.10;;;;;;;;;;5075046;28;20452;-74
2023/03/20 04:51:01;;;;;;;9.90;7.80;;;;;;;;;;5074728;28;20479;-74
2023/03/20 04:53:30;;;;;;;10.37;7.20;;;;;;;;;;5074615;28;20451;-74
2023/03/20 04:55:57;;;;;;;12.17;8.90;;;;;;;;;;5074978;28;20444;-73
2023/03/20 04:58:24;;;;;;;12.40;9.37;;;;;;;;;;5074773;28;20941;-73
2023/03/20 05:00:51;;;;;;;9.43;8.13;;;;;;;;;;5074696;28;20976;-73
2023/03/20 05:03:18;;;;;;;11.77;7.97;;;;;;;;;;5074344;28;20452;-73
2023/03/20 05:05:45;;;;;;;9.03;8.13;;;;;;;;;;5073739;28;20490;-73
2023/03/20 05:08:12;;;;;;;11.53;7.47;;;;;;;;;;5074654;28;20933;-73
2023/03/20 05:10:40;;;;;;;8.10;6.83;;;;;;;;;;5074574;28;20841;-73
2023/03/20 05:13:08;;;;;;;14.87;7.67;;;;;;;;;;5074473;28;20463;-73
2023/03/20 05:15:35;;;;;;;8.30;6.27;;;;;;;;;;5074317;28;20452;-73
2023/03/20 05:18:02;;;;;;;11.90;6.97;;;;;;;;;;5074281;28;20463;-74
2023/03/20 05:20:29;;;;;;;7.40;6.07;;;;;;;;;;5074214;28;20471;-73
2023/03/20 05:22:56;;;;;;;7.63;5.17;;;;;;;;;;5074348;28;20455;-73
2023/03/20 05:25:23;;;;;;;7.23;5.43;;;;;;;;;;5073906;28;20479;-73
2023/03/20 05:27:52;;;;;;;7.53;6.00;;;;;;;;;;5074189;28;20447;-73
2023/03/20 05:30:19;;;;;;;10.23;6.63;;;;;;;;;;5073755;28;20458;-73
2023/03/20 05:32:46;;;;;;;7.53;6.77;;;;;;;;;;5074257;28;20456;-74
2023/03/20 05:35:13;;;;;;;24.10;12.80;;;;;;;;;;5073825;28;20821;-73
2023/03/20 05:37:40;;;;;;;11.27;9.47;;;;;;;;;;5074076;28;20448;-73
2023/03/20 05:40:09;;;;;;;24.67;13.87;;;;;;;;;;5073892;28;20448;-73
2023/03/20 05:42:36;;;;;;;23.77;15.20;;;;;;;;;;5074030;28;20483;-73
2023/03/20 05:45:05;;;;;;;49.57;26.30;;;;;;;;;;5073520;28;20455;-73
2023/03/20 05:47:32;;;;;;;53.27;29.10;;;;;;;;;;5073682;28;20491;-73
2023/03/20 05:49:59;;;;;;;63.77;30.40;;;;;;;;;;5073958;28;20447;-73
2023/03/20 05:52:26;;;;;;;108.13;54.63;;;;;;;;;;5073692;28;20886;-73
2023/03/20 05:54:53;;;;;;;125.53;59.27;;;;;;;;;;5073639;28;20813;-73
2023/03/20 05:57:21;;;;;;;31.43;19.23;;;;;;;;;;5073544;28;20448;-74
2023/03/20 05:59:48;;;;;;;20.03;13.37;;;;;;;;;;5073625;28;20551;-73
2023/03/20 06:02:17;;;;;;;14.90;12.10;;;;;;;;;;5073386;28;20474;-73
2023/03/20 06:04:44;;;;;;;25.83;14.90;;;;;;;;;;5073368;28;20451;-73
2023/03/20 06:07:11;;;;;;;14.73;9.73;;;;;;;;;;5072699;28;20495;-73
2023/03/20 06:09:38;;;;;;;12.93;8.30;;;;;;;;;;5073601;28;20444;-73
2023/03/20 06:12:05;;;;;;;7.53;6.67;;;;;;;;;;5073196;28;20538;-74
2023/03/20 06:14:32;;;;;;;8.20;7.00;;;;;;;;;;5072562;28;20448;-73
2023/03/20 06:16:59;;;;;;;10.40;9.30;;;;;;;;;;5073390;28;20804;-74
2023/03/20 06:19:28;;;;;;;9.90;8.43;;;;;;;;;;5073324;28;20456;-74
2023/03/20 06:21:55;;;;;;;10.50;8.43;;;;;;;;;;5073187;28;20468;-73
2023/03/20 06:24:22;;;;;;;7.87;7.07;;;;;;;;;;5072819;28;20452;-73
2023/03/20 06:26:49;;;;;;;8.13;7.30;;;;;;;;;;5073102;28;20520;-74
2023/03/20 06:29:20;;;;;;;8.60;6.60;;;;;;;;;;5073070;28;20836;-73
2023/03/20 06:31:47;;;;;;;8.77;7.13;;;;;;;;;;5072848;28;20494;-73
2023/03/20 06:34:15;;;;;;;9.93;7.87;;;;;;;;;;5072878;28;20448;-73
2023/03/20 06:36:43;;;;;;;8.17;6.53;;;;;;;;;;5073028;28;20833;-73
2023/03/20 06:39:10;;;;;;;6.70;5.23;;;;;;;;;;5072913;28;20443;-74
2023/03/20 06:41:38;;;;;;;5.80;5.07;;;;;;;;;;5072906;28;20472;-73
2023/03/20 06:44:05;;;;;;;5.43;5.03;;;;;;;;;;5072870;28;20815;-74
2023/03/20 06:46:32;;;;;;;8.73;6.43;;;;;;;;;;5072918;28;20852;-73
2023/03/20 06:49:00;;;;;;;13.00;8.30;;;;;;;;;;5072962;28;20469;-73
2023/03/20 06:51:27;;;;;;;10.83;8.80;;;;;;;;;;5072833;28;20479;-74
2023/03/20 06:53:55;;;;;;;8.00;6.93;;;;;;;;;;5072676;28;20451;-74
2023/03/20 06:56:22;;;;;;;11.20;7.50;;;;;;;;;;5072769;28;20447;-73
2023/03/20 06:58:49;;;;;;;7.97;6.67;;;;;;;;;;5072821;28;20827;-73
2023/03/20 07:01:19;;;;;;;9.70;8.23;;;;;;;;;;5072720;28;20479;-74
2023/03/20 07:03:46;;;;;;;11.27;7.90;;;;;;;;;;5072578;28;20505;-74
2023/03/20 07:06:14;;;;;;;9.03;6.83;;;;;;;;;;5071894;28;20486;-74
2023/03/20 07:08:41;;;;;;;9.93;5.70;;;;;;;;;;5072831;28;20498;-73
2023/03/20 07:11:09;;;;;;;6.57;5.30;;;;;;;;;;5072897;28;20483;-74
2023/03/20 07:13:36;;;;;;;7.47;5.60;;;;;;;;;;5072569;28;20482;-74
2023/03/20 07:16:04;;;;;;;7.30;6.33;;;;;;;;;;5072483;28;20455;-74
2023/03/20 07:18:31;;;;;;;9.13;6.10;;;;;;;;;;5072679;28;20452;-74
2023/03/20 07:21:00;;;;;;;12.27;8.07;;;;;;;;;;5072571;28;20480;-74
2023/03/20 07:23:27;;;;;;;8.60;5.37;;;;;;;;;;5072337;28;20464;-76
2023/03/20 07:25:54;;;;;;;7.40;5.73;;;;;;;;;;5073845;28;20455;-73
2023/03/20 07:28:23;;;;;;;6.60;5.90;;;;;;;;;;5076358;28;20463;-74
2023/03/20 07:30:50;;;;;;;6.83;5.43;;;;;;;;;;5076146;28;20484;-73
2023/03/20 07:33:17;;;;;;;5.53;5.00;;;;;;;;;;5076127;28;20492;-74
2023/03/20 07:35:44;;;;;;;5.63;5.07;;;;;;;;;;5076039;28;20940;-73
2023/03/20 07:38:11;;;;;;;8.40;5.67;;;;;;;;;;5076206;28;20546;-74
2023/03/20 07:40:38;;;;;;;9.00;6.70;;;;;;;;;;5075940;28;20512;-74
2023/03/20 07:43:05;;;;;;;10.00;7.50;;;;;;;;;;5076230;28;20451;-74
2023/03/20 07:45:34;;;;;;;8.90;6.60;;;;;;;;;;5076090;28;20933;-74
2023/03/20 07:48:01;;;;;;;8.90;7.37;;;;;;;;;;5075902;28;20491;-74
2023/03/20 07:50:28;;;;;;;7.43;6.10;;;;;;;;;;5075855;28;20467;-74
2023/03/20 07:52:55;;;;;;;6.30;5.70;;;;;;;;;;5075990;28;20448;-74
2023/03/20 07:55:22;;;;;;;7.50;5.80;;;;;;;;;;5075673;28;20452;-74
2023/03/20 07:57:49;;;;;;;5.97;5.33;;;;;;;;;;5075930;28;20820;-74
2023/03/20 08:00:18;;;;;;;7.23;4.90;;;;;;;;;;5075703;28;20948;-73
2023/03/20 08:02:46;;;;;;;7.60;6.00;;;;;;;;;;5075930;28;20859;-74
2023/03/20 08:05:13;;;;;;;6.20;5.60;;;;;;;;;;5074908;28;20812;-74
2023/03/20 08:07:40;;;;;;;4.83;4.40;;;;;;;;;;5075633;28;20483;-74
2023/03/20 08:10:08;;;;;;;10.30;5.07;;;;;;;;;;5075552;28;20448;-74
2023/03/20 08:12:35;;;;;;;6.33;5.00;;;;;;;;;;5075684;28;20448;-74
2023/03/20 08:15:02;;;;;;;5.27;4.77;;;;;;;;;;5075196;28;20455;-74
2023/03/20 08:17:29;;;;;;;5.53;5.00;;;;;;;;;;5075608;28;20436;-74
2023/03/20 08:19:57;;;;;;;6.40;4.60;;;;;;;;;;5075587;28;20500;-74
2023/03/20 08:22:25;;;;;;;5.67;5.17;;;;;;;;;;5075207;28;20478;-74
2023/03/20 08:24:52;;;;;;;6.13;5.20;;;;;;;;;;5075413;28;20941;-74
2023/03/20 08:27:19;;;;;;;6.40;5.70;;;;;;;;;;5075091;28;20487;-75
2023/03/20 08:29:46;;;;;;;8.60;5.50;;;;;;;;;;5075251;28;20460;-74
2023/03/20 08:32:13;;;;;;;6.90;6.17;;;;;;;;;;5074960;28;20495;-74
2023/03/20 08:34:40;;;;;;;5.73;5.17;;;;;;;;;;5075276;28;20455;-73
2023/03/20 08:37:09;;;;;;;6.30;5.27;;;;;;;;;;5074509;28;20447;-74
2023/03/20 08:39:38;;;;;;;7.70;5.17;;;;;;;;;;5075168;28;20505;-74
2023/03/20 08:42:05;;;;;;;7.00;5.20;;;;;;;;;;5074829;28;20474;-74
2023/03/20 08:44:32;;;;;;;5.93;5.30;;;;;;;;;;5074931;28;20444;-73
2023/03/20 08:46:59;;;;;;;6.03;5.10;;;;;;;;;;5074919;28;21004;-74
2023/03/20 08:49:27;;;;;;;7.33;5.17;;;;;;;;;;5074999;28;20451;-73
2023/03/20 08:51:54;;;;;;;7.80;5.80;;;;;;;;;;5074950;28;20472;-73
2023/03/20 08:54:22;;;;;;;6.43;5.83;;;;;;;;;;5074611;28;20496;-74
2023/03/20 08:56:49;;;;;;;6.77;6.03;;;;;;;;;;5074769;28;20448;-74
2023/03/20 08:59:18;;;;;;;7.33;6.50;;;;;;;;;;5074709;28;20959;-74
2023/03/20 09:01:45;;;;;;;9.37;7.30;;;;;;;;;;5074579;28;20475;-74
2023/03/20 09:04:12;;;;;;;6.87;5.93;;;;;;;;;;5074336;28;20455;-74
2023/03/20 09:06:39;;;;;;;7.37;5.93;;;;;;;;;;5074215;28;20491;-74
2023/03/20 09:09:07;;;;;;;9.80;5.57;;;;;;;;;;5074367;28;20459;-74
2023/03/20 09:11:35;;;;;;;5.20;4.70;;;;;;;;;;5074424;28;20475;-74
2023/03/20 09:14:02;;;;;;;5.87;5.23;;;;;;;;;;5074299;28;20456;-74
2023/03/20 09:16:29;;;;;;;8.10;6.07;;;;;;;;;;5074468;28;20460;-74
2023/03/20 09:18:56;;;;;;;6.60;6.00;;;;;;;;;;5074351;28;20448;-74
2023/03/20 09:21:24;;;;;;;8.20;5.80;;;;;;;;;;5074119;28;20976;-74
2023/03/20 09:23:51;;;;;;;5.60;4.97;;;;;;;;;;5074064;28;20952;-74
2023/03/20 09:26:18;;;;;;;8.37;7.57;;;;;;;;;;5074043;28;20956;-74
2023/03/20 09:28:46;;;;;;;6.30;5.70;;;;;;;;;;5074260;28;20932;-74
2023/03/20 09:31:14;;;;;;;9.83;7.07;;;;;;;;;;5073810;28;20488;-74
2023/03/20 09:33:41;;;;;;;8.97;6.67;;;;;;;;;;5073885;28;20975;-75
2023/03/20 09:36:10;;;;;;;8.70;6.00;;;;;;;;;;5073810;28;20454;-75
2023/03/20 09:38:40;;;;;;;7.40;5.83;;;;;;;;;;5073982;28;20444;-75
2023/03/20 09:41:08;;;;;;;7.00;6.10;;;;;;;;;;5073748;28;20503;-74
2023/03/20 09:43:48;;;;;;;6.70;5.97;;;;;;;;;;5073731;28;20887;-74
2023/03/20 09:46:26;;;;;;;8.77;6.30;;;;;;;;;;5073710;28;20940;-74
2023/03/20 09:48:56;;;;;;;7.63;5.83;;;;;;;;;;5073026;28;20878;-75
2023/03/20 09:51:30;;;;;;;9.23;6.00;;;;;;;;;;5073677;28;20463;-75
2023/03/20 09:53:58;;;;;;;7.87;5.80;;;;;;;;;;5073517;28;20535;-75
2023/03/20 09:56:26;;;;;;;7.30;6.10;;;;;;;;;;5073516;28;20854;-74
2023/03/20 09:58:55;;;;;;;9.47;6.80;;;;;;;;;;5073565;28;20459;-74
2023/03/20 10:01:25;;;;;;;8.20;7.07;;;;;;;;;;5073388;28;21007;-74
2023/03/20 10:03:54;;;;;;;10.10;7.40;;;;;;;;;;5073180;28;20451;-74
2023/03/20 10:06:21;;;;;;;7.70;6.00;;;;;;;;;;5072757;28;20447;-74
2023/03/20 10:08:48;;;;;;;8.37;6.70;;;;;;;;;;5073278;28;20487;-74
2023/03/20 10:11:23;;;;;;;10.23;8.97;;;;;;;;;;5073329;28;20988;-74
2023/03/20 10:13:58;;;;;;;10.00;7.50;;;;;;;;;;5073048;28;20471;-74
2023/03/20 10:16:33;;;;;;;6.73;6.13;;;;;;;;;;5073040;28;20459;-74
2023/03/20 10:19:04;;;;;;;8.60;6.40;;;;;;;;;;5072363;28;20458;-74
2023/03/20 10:21:33;;;;;;;7.90;7.00;;;;;;;;;;5073232;28;20479;-74
2023/03/20 10:24:03;;;;;;;9.93;6.50;;;;;;;;;;5072819;28;20459;-74
2023/03/20 10:26:32;;;;;;;7.50;5.90;;;;;;;;;;5073381;28;20490;-74
2023/03/20 10:29:00;;;;;;;7.10;6.50;;;;;;;;;;5073099;28;20524;-74
2023/03/20 10:31:38;;;;;;;8.20;6.63;;;;;;;;;;5072978;28;20983;-75
2023/03/20 10:34:11;;;;;;;10.00;9.03;;;;;;;;;;5072990;28;20447;-74
2023/03/20 10:36:54;;;;;;;10.27;7.13;;;;;;;;;;5073162;28;20939;-75
2023/03/20 10:39:28;;;;;;;10.73;7.63;;;;;;;;;;5073082;28;20453;-75
2023/03/20 10:41:56;;;;;;;9.80;7.80;;;;;;;;;;5073104;28;20463;-75
2023/03/20 10:44:28;;;;;;;9.37;6.77;;;;;;;;;;5072852;28;20975;-75
2023/03/20 10:46:58;;;;;;;12.23;6.80;;;;;;;;;;5073127;28;20936;-75
2023/03/20 10:49:30;;;;;;;6.83;6.13;;;;;;;;;;5073320;28;20952;-75
2023/03/20 10:52:00;;;;;;;7.17;6.47;;;;;;;;;;5073333;28;20486;-74
2023/03/20 10:54:28;;;;;;;6.30;5.70;;;;;;;;;;5072882;28;20996;-74
2023/03/20 10:56:57;;;;;;;6.00;4.97;;;;;;;;;;5072940;28;20952;-74
2023/03/20 10:59:26;;;;;;;6.60;6.00;;;;;;;;;;5073388;28;20817;-75
2023/03/20 11:01:53;;;;;;;7.13;6.10;;;;;;;;;;5076031;28;20479;-75
2023/03/20 11:04:22;;;;;;;7.80;6.70;;;;;;;;;;5077215;28;20474;-75
2023/03/20 11:06:53;;;;;;;7.03;6.10;;;;;;;;;;5077122;28;20451;-75
2023/03/20 11:09:21;;;;;;;6.60;5.90;;;;;;;;;;5077355;28;20893;-75
2023/03/20 11:11:49;;;;;;;8.47;7.57;;;;;;;;;;5077263;28;20478;-76
2023/03/20 11:14:21;;;;;;;14.70;7.80;;;;;;;;;;5077389;28;20466;-75
2023/03/20 11:16:50;;;;;;;9.43;7.90;;;;;;;;;;5076908;28;20455;-75
2023/03/20 11:19:17;;;;;;;6.87;6.10;;;;;;;;;;5077049;28;20510;-75
2023/03/20 11:21:49;;;;;;;7.43;5.90;;;;;;;;;;5077067;28;20835;-75
2023/03/20 11:24:26;;;;;;;7.10;4.83;;;;;;;;;;5077075;28;20855;-75
2023/03/20 11:26:54;;;;;;;5.87;5.30;;;;;;;;;;5077109;28;20967;-75
2023/03/20 11:29:25;;;;;;;6.50;5.20;;;;;;;;;;5076914;28;20541;-75
2023/03/20 11:31:53;;;;;;;5.87;4.83;;;;;;;;;;5076546;28;20491;-73
2023/03/20 11:34:26;;;;;;;5.83;5.23;;;;;;;;;;5076558;28;20456;-72
2023/03/20 11:36:58;;;;;;;5.33;4.47;;;;;;;;;;5076706;28;20455;-73
2023/03/20 11:39:26;;;;;;;7.33;5.50;;;;;;;;;;5076497;28;20460;-73
2023/03/20 11:41:55;;;;;;;5.23;4.67;;;;;;;;;;5076434;28;20518;-73
2023/03/20 11:44:23;;;;;;;6.70;5.60;;;;;;;;;;5076298;28;20452;-72
2023/03/20 11:46:56;;;;;;;6.00;5.40;;;;;;;;;;5076471;28;20460;-72
2023/03/20 11:49:24;;;;;;;7.70;6.37;;;;;;;;;;5076615;28;20491;-73
2023/03/20 11:51:52;;;;;;;6.87;6.27;;;;;;;;;;5076386;28;20563;-72
2023/03/20 11:54:22;;;;;;;7.10;5.77;;;;;;;;;;5075661;28;20961;-72
2023/03/20 11:56:53;;;;;;;9.20;7.13;;;;;;;;;;5076018;28;20803;-72
2023/03/20 11:59:21;;;;;;;6.30;5.70;;;;;;;;;;5076047;28;20893;-72
2023/03/20 12:01:49;;;;;;;8.00;6.10;;;;;;;;;;5075994;28;20478;-72
2023/03/20 12:04:17;;;;;;;6.77;6.10;;;;;;;;;;5075597;28;20458;-72
2023/03/20 12:06:47;;;;;;;6.60;5.90;;;;;;;;;;5075598;28;20482;-72
2023/03/20 12:09:23;;;;;;;7.60;6.27;;;;;;;;;;5075799;28;20494;-72
2023/03/20 12:11:53;;;;;;;6.60;6.00;;;;;;;;;;5075009;28;20471;-72
2023/03/20 12:14:27;;;;;;;6.43;5.83;;;;;;;;;;5075666;28;20459;-72
2023/03/20 12:16:57;;;;;;;6.30;5.70;;;;;;;;;;5076084;28;20485;-72
2023/03/20 12:19:26;;;;;;;9.27;6.47;;;;;;;;;;5075742;28;20535;-72
2023/03/20 12:22:00;;;;;;;8.13;7.30;;;;;;;;;;5075458;28;20834;-72
2023/03/20 12:24:30;;;;;;;7.30;6.60;;;;;;;;;;5075221;28;20455;-72
2023/03/20 12:27:01;;;;;;;6.70;6.00;;;;;;;;;;5075391;28;20452;-74
2023/03/20 12:29:31;;;;;;;6.30;5.63;;;;;;;;;;5075414;28;20495;-72
2023/03/20 12:32:02;;;;;;;7.67;6.67;;;;;;;;;;5075187;28;20483;-72
2023/03/20 12:34:33;;;;;;;5.73;5.13;;;;;;;;;;5075481;28;20447;-72
2023/03/20 12:37:01;;;;;;;18.07;10.40;;;;;;;;;;5075234;28;20459;-72
2023/03/20 12:39:33;;;;;;;7.40;6.23;;;;;;;;;;5075214;28;20448;-72
2023/03/20 12:42:08;;;;;;;6.13;5.63;;;;;;;;;;5075128;28;20479;-72
2023/03/20 12:44:39;;;;;;;9.27;5.40;;;;;;;;;;5075096;28;20450;-72
2023/03/20 12:47:16;;;;;;;9.23;5.90;;;;;;;;;;5075123;28;20460;-72
2023/03/20 12:49:46;;;;;;;6.87;6.17;;;;;;;;;;5074993;28;20487;-72
2023/03/20 12:52:18;;;;;;;5.67;5.10;;;;;;;;;;5074947;28;20826;-72
2023/03/20 12:54:55;;;;;;;6.50;4.90;;;;;;;;;;5074803;28;20451;-72
2023/03/20 12:57:29;;;;;;;6.17;5.50;;;;;;;;;;5075025;28;20479;-72
2023/03/20 13:00:05;;;;;;;10.00;5.97;;;;;;;;;;5074900;28;20444;-72
2023/03/20 13:02:38;;;;;;;5.47;4.97;;;;;;;;;;5074718;28;20443;-72
2023/03/20 13:05:11;;;;;;;7.70;6.93;;;;;;;;;;5074204;28;20439;-72
2023/03/20 13:07:44;;;;;;;6.30;5.70;;;;;;;;;;5074751;28;20443;-72
2023/03/20 13:10:19;;;;;;;8.30;6.10;;;;;;;;;;5074417;28;20456;-72
2023/03/20 13:12:51;;;;;;;11.43;5.97;;;;;;;;;;5074534;28;20450;-72
2023/03/20 13:15:23;;;;;;;7.00;6.30;;;;;;;;;;5074132;28;20463;-73
2023/03/20 13:17:52;;;;;;;9.30;8.40;;;;;;;;;;5074536;28;20945;-72
2023/03/20 13:20:25;;;;;;;7.40;6.43;;;;;;;;;;5074360;28;20949;-72
2023/03/20 13:22:57;;;;;;;6.77;6.17;;;;;;;;;;5074578;28;20979;-73
2023/03/20 13:25:32;;;;;;;9.03;7.47;;;;;;;;;;5073952;28;20527;-72
2023/03/20 13:28:03;;;;;;;14.77;13.23;;;;;;;;;;5074186;28;20490;-72
2023/03/20 13:30:34;;;;;;;8.33;7.43;;;;;;;;;;5074132;28;20498;-73
2023/03/20 13:33:06;;;;;;;41.47;37.30;;;;;;;;;;5074209;28;20940;-73
2023/03/20 13:35:39;;;;;;;21.53;15.20;;;;;;;;;;5074134;28;20451;-72
2023/03/20 13:38:10;;;;;;;7.50;6.73;;;;;;;;;;5073960;28;20450;-72
2023/03/20 13:40:42;;;;;;;7.30;6.00;;;;;;;;;;5074055;28;20999;-72
2023/03/20 13:43:22;;;;;;;6.37;5.77;;;;;;;;;;5074021;28;20844;-74
2023/03/20 13:45:51;;;;;;;7.20;6.50;;;;;;;;;;5073873;28;20459;-72
2023/03/20 13:48:24;;;;;;;8.00;5.87;;;;;;;;;;5073740;28;20480;-72
2023/03/20 13:50:54;;;;;;;10.10;7.30;;;;;;;;;;5073928;28;20479;-73
2023/03/20 13:53:29;;;;;;;8.37;7.10;;;;;;;;;;5073750;28;20455;-73
2023/03/20 13:56:00;;;;;;;15.50;12.70;;;;;;;;;;5073915;28;20455;-73
2023/03/20 13:58:37;;;;;;;9.43;7.70;;;;;;;;;;5074076;28;20806;-74
2023/03/20 14:01:07;;;;;;;9.00;7.90;;;;;;;;;;5073496;28;20839;-73
2023/03/20 14:03:36;;;;;;;10.23;7.33;;;;;;;;;;5073500;28;20452;-73
2023/03/20 14:06:16;;;;;;;9.27;8.30;;;;;;;;;;5073156;28;20444;-73
2023/03/20 14:08:48;;;;;;;10.13;9.00;;;;;;;;;;5073610;28;20491;-73
2023/03/20 14:11:31;;;;;;;9.90;8.90;;;;;;;;;;5073385;28;20479;-73
2023/03/20 14:14:03;;;;;;;9.27;8.37;;;;;;;;;;5073492;28;20455;-73
2023/03/20 14:16:30;;;;;;;12.83;10.30;;;;;;;;;;5073622;28;20475;-73
2023/03/20 14:19:08;;;;;;;9.07;8.17;;;;;;;;;;5073554;28;20440;-73
2023/03/20 14:21:35;;;;;;;9.63;7.37;;;;;;;;;;5073053;28;20554;-73
2023/03/20 14:24:04;;;;;;;8.30;7.47;;;;;;;;;;5073000;28;20505;-72
2023/03/20 14:26:33;;;;;;;10.57;9.33;;;;;;;;;;5073233;28;20936;-73
2023/03/20 14:29:02;;;;;;;7.60;6.90;;;;;;;;;;5073328;28;20855;-73
2023/03/20 14:31:33;;;;;;;8.10;7.30;;;;;;;;;;5073053;28;20518;-73
2023/03/20 14:34:01;;;;;;;11.97;9.07;;;;;;;;;;5072990;28;20996;-73
2023/03/20 14:36:30;;;;;;;11.60;8.23;;;;;;;;;;5072496;28;20459;-73
2023/03/20 14:39:13;;;;;;;9.10;7.10;;;;;;;;;;5073283;28;20459;-73
2023/03/20 14:41:47;;;;;;;8.37;7.00;;;;;;;;;;5073236;28;20472;-72
2023/03/20 14:44:25;;;;;;;8.50;7.43;;;;;;;;;;5072831;28;20459;-73
2023/03/20 14:46:55;;;;;;;7.83;7.07;;;;;;;;;;5073131;28;20465;-73